Disclaimer

Please do not use the information listed here in-flight or in-navigation, as they are not provided to us by the airports but are provided by volunteers, so they might be outdated.

Search


Regions


Airport information page

No radio frequency information is available.

Airport informations:
Latitude: 57° 33' 38.40" N
Longitude: 040° 09' 26.53" E
Elevation: 305 feet - 93 meters
Operating hours: Remarks
Operating agency: Civil government, landing fees and diplomatic clearance may be required
Timezone: UTC+3(+4DT) - Last Sunday in March to last Sunday in October
Fuel: N/A

Runway information:
05/23 - 9843 x 144 feet< - >3000 x 44 meters

Recent METARs:
UUDL 201530Z 24005MPS 9999 OVC046 M03/M05 Q1021 R23/420255 NOSIG RMK QFE757
UUDL 201600Z 24006MPS CAVOK M02/M05 Q1021 R23/420255 NOSIG RMK QFE757
UUDL 201630Z 24005MPS CAVOK M02/M05 Q1020 R23/420255 NOSIG RMK QFE757

Airport on the map: